Terminal Aerodrome Forecast
Issued by NWS

Home | Current Version | Previous Version | Text Only | Print | Product List | Glossary On
Versions: 1 2 3 4 5 6 7 8 9 10 11 12
776
FTAK31 PAJN 241128
TAFAJN
TAF
PAJN 241128Z 2412/2512 VRB03KT P6SM VCSH BKN035 OVC070
     FM241700 24007KT P6SM BKN035 OVC050
     FM250400 VRB03KT P6SM VCSH SCT025 OVC035=

USA.gov is the U.S. government's official web portal to all federal, state and local government web resources and services.